sensor_id;sensor_type;location;lat;lon;timestamp;pressure;altitude;pressure_sealevel;temperature
75273;BMP280;63869;52.344;16.928;2023-02-01T00:00:00;99851.91;;;4.78
75273;BMP280;63869;52.344;16.928;2023-02-01T00:02:25;99882.91;;;4.84
75273;BMP280;63869;52.344;16.928;2023-02-01T00:04:50;99850.75;;;4.79
75273;BMP280;63869;52.344;16.928;2023-02-01T00:07:16;99846.22;;;4.83
75273;BMP280;63869;52.344;16.928;2023-02-01T00:09:41;99850.00;;;4.82
75273;BMP280;63869;52.344;16.928;2023-02-01T00:12:06;99830.34;;;4.69
75273;BMP280;63869;52.344;16.928;2023-02-01T00:14:32;99851.50;;;4.86
75273;BMP280;63869;52.344;16.928;2023-02-01T00:17:06;99837.94;;;4.74
75273;BMP280;63869;52.344;16.928;2023-02-01T00:19:31;99860.97;;;4.87
75273;BMP280;63869;52.344;16.928;2023-02-01T00:21:57;99874.94;;;4.88
75273;BMP280;63869;52.344;16.928;2023-02-01T00:24:22;99863.25;;;4.78
75273;BMP280;63869;52.344;16.928;2023-02-01T00:26:47;99856.81;;;4.72
75273;BMP280;63869;52.344;16.928;2023-02-01T00:29:18;99878.00;;;4.90
75273;BMP280;63869;52.344;16.928;2023-02-01T00:31:44;99849.25;;;4.78
75273;BMP280;63869;52.344;16.928;2023-02-01T00:34:14;99881.41;;;4.90
75273;BMP280;63869;52.344;16.928;2023-02-01T00:36:40;99862.88;;;4.90
75273;BMP280;63869;52.344;16.928;2023-02-01T00:39:06;99862.13;;;4.90
75273;BMP280;63869;52.344;16.928;2023-02-01T00:41:33;99849.25;;;4.81
75273;BMP280;63869;52.344;16.928;2023-02-01T00:43:58;99878.00;;;4.90
75273;BMP280;63869;52.344;16.928;2023-02-01T00:46:24;99864.75;;;4.86
75273;BMP280;63869;52.344;16.928;2023-02-01T00:48:49;99860.59;;;4.85
75273;BMP280;63869;52.344;16.928;2023-02-01T00:51:18;99867.78;;;4.85
75273;BMP280;63869;52.344;16.928;2023-02-01T00:53:44;99871.19;;;4.82
75273;BMP280;63869;52.344;16.928;2023-02-01T00:56:10;99858.31;;;4.84
75273;BMP280;63869;52.344;16.928;2023-02-01T00:58:36;99853.78;;;4.77
75273;BMP280;63869;52.344;16.928;2023-02-01T01:01:06;99892.75;;;4.80
75273;BMP280;63869;52.344;16.928;2023-02-01T01:03:33;99871.97;;;4.89
75273;BMP280;63869;52.344;16.928;2023-02-01T01:06:01;99884.78;;;4.87
75273;BMP280;63869;52.344;16.928;2023-02-01T01:08:26;99865.13;;;4.78
75273;BMP280;63869;52.344;16.928;2023-02-01T01:10:52;99887.09;;;4.89
75273;BMP280;63869;52.344;16.928;2023-02-01T01:13:18;99884.78;;;4.84
75273;BMP280;63869;52.344;16.928;2023-02-01T01:15:44;99888.22;;;4.91
75273;BMP280;63869;52.344;16.928;2023-02-01T01:18:10;99879.16;;;4.89
75273;BMP280;63869;52.344;16.928;2023-02-01T01:20:37;99895.38;;;4.98
75273;BMP280;63869;52.344;16.928;2023-02-01T01:23:03;99887.03;;;5.03
75273;BMP280;63869;52.344;16.928;2023-02-01T01:25:29;99891.97;;;5.08
75273;BMP280;63869;52.344;16.928;2023-02-01T01:27:54;99883.25;;;5.08
75273;BMP280;63869;52.344;16.928;2023-02-01T01:30:19;99884.03;;;5.08
75273;BMP280;63869;52.344;16.928;2023-02-01T01:32:45;99865.09;;;5.06
75273;BMP280;63869;52.344;16.928;2023-02-01T01:35:11;99881.72;;;5.14
75273;BMP280;63869;52.344;16.928;2023-02-01T01:37:36;99859.78;;;5.03
75273;BMP280;63869;52.344;16.928;2023-02-01T01:40:03;99867.72;;;5.13
75273;BMP280;63869;52.344;16.928;2023-02-01T01:42:28;99862.06;;;5.01
75273;BMP280;63869;52.344;16.928;2023-02-01T01:45:04;99890.81;;;5.09
75273;BMP280;63869;52.344;16.928;2023-02-01T01:47:35;99876.06;;;5.01
75273;BMP280;63869;52.344;16.928;2023-02-01T01:50:04;99891.97;;;5.08
75273;BMP280;63869;52.344;16.928;2023-02-01T01:52:31;99900.66;;;5.09
75273;BMP280;63869;52.344;16.928;2023-02-01T01:54:58;99905.94;;;5.12
75273;BMP280;63869;52.344;16.928;2023-02-01T01:57:27;99859.06;;;4.88
75273;BMP280;63869;52.344;16.928;2023-02-01T02:00:07;99893.06;;;5.21
75273;BMP280;63869;52.344;16.928;2023-02-01T02:02:33;99874.88;;;5.20
75273;BMP280;63869;52.344;16.928;2023-02-01T02:04:59;99892.69;;;5.26
75273;BMP280;63869;52.344;16.928;2023-02-01T02:07:30;99899.06;;;5.36
75273;BMP280;63869;52.344;16.928;2023-02-01T02:09:56;99885.44;;;5.38
75273;BMP280;63869;52.344;16.928;2023-02-01T02:12:21;99881.66;;;5.39
75273;BMP280;63869;52.344;16.928;2023-02-01T02:14:47;99888.78;;;5.45
75273;BMP280;63869;52.344;16.928;2023-02-01T02:20:09;99907.34;;;5.49
75273;BMP280;63869;52.344;16.928;2023-02-01T02:23:17;99883.47;;;5.49
75273;BMP280;63869;52.344;16.928;2023-02-01T02:29:31;99900.59;;;5.41
75273;BMP280;63869;52.344;16.928;2023-02-01T02:34:50;99875.59;;;5.42
75273;BMP280;63869;52.344;16.928;2023-02-01T02:37:42;99881.28;;;5.37
75273;BMP280;63869;52.344;16.928;2023-02-01T02:48:28;99878.94;;;5.46
75273;BMP280;63869;52.344;16.928;2023-02-01T02:51:04;99871.06;;;5.39
75273;BMP280;63869;52.344;16.928;2023-02-01T02:56:32;99894.47;;;5.54
75273;BMP280;63869;52.344;16.928;2023-02-01T02:59:20;99891.44;;;5.49
75273;BMP280;63869;52.344;16.928;2023-02-01T03:02:06;99877.03;;;5.50
75273;BMP280;63869;52.344;16.928;2023-02-01T03:04:54;99881.22;;;5.44
75273;BMP280;63869;52.344;16.928;2023-02-01T03:07:45;99877.06;;;5.46
75273;BMP280;63869;52.344;16.928;2023-02-01T03:10:24;99869.53;;;5.34
75273;BMP280;63869;52.344;16.928;2023-02-01T03:12:52;99889.59;;;5.42
75273;BMP280;63869;52.344;16.928;2023-02-01T03:15:33;99888.47;;;5.40
75273;BMP280;63869;52.344;16.928;2023-02-01T03:18:01;99893.75;;;5.36
75273;BMP280;63869;52.344;16.928;2023-02-01T03:20:29;99897.94;;;5.34
75273;BMP280;63869;52.344;16.928;2023-02-01T03:22:55;99894.91;;;5.31
75273;BMP280;63869;52.344;16.928;2023-02-01T03:25:28;99877.09;;;5.32
75273;BMP280;63869;52.344;16.928;2023-02-01T03:28:06;99873.34;;;5.29
75273;BMP280;63869;52.344;16.928;2023-02-01T03:30:40;99876.34;;;5.31
75273;BMP280;63869;52.344;16.928;2023-02-01T03:33:10;99879.75;;;5.36
75273;BMP280;63869;52.344;16.928;2023-02-01T03:36:03;99869.53;;;5.38
75273;BMP280;63869;52.344;16.928;2023-02-01T03:44:09;99859.69;;;5.35
75273;BMP280;63869;52.344;16.928;2023-02-01T03:46:42;99870.63;;;5.44
75273;BMP280;63869;52.344;16.928;2023-02-01T03:49:11;99874.78;;;5.45
75273;BMP280;63869;52.344;16.928;2023-02-01T03:51:40;99872.13;;;5.48
75273;BMP280;63869;52.344;16.928;2023-02-01T03:54:08;99875.91;;;5.51
75273;BMP280;63869;52.344;16.928;2023-02-01T03:56:36;99869.84;;;5.54
75273;BMP280;63869;52.344;16.928;2023-02-01T03:59:02;99869.47;;;5.52
75273;BMP280;63869;52.344;16.928;2023-02-01T04:01:29;99872.09;;;5.59
75273;BMP280;63869;52.344;16.928;2023-02-01T04:03:56;99837.72;;;5.41
75273;BMP280;63869;52.344;16.928;2023-02-01T04:06:21;99867.94;;;5.58
75273;BMP280;63869;52.344;16.928;2023-02-01T04:08:47;99851.31;;;5.54
75273;BMP280;63869;52.344;16.928;2023-02-01T04:11:12;99857.38;;;5.54
75273;BMP280;63869;52.344;16.928;2023-02-01T04:13:37;99857.34;;;5.51
75273;BMP280;63869;52.344;16.928;2023-02-01T04:16:03;99865.69;;;5.56
75273;BMP280;63869;52.344;16.928;2023-02-01T04:18:28;99853.19;;;5.46
75273;BMP280;63869;52.344;16.928;2023-02-01T04:20:53;99858.84;;;5.52
75273;BMP280;63869;52.344;16.928;2023-02-01T04:23:19;99860.75;;;5.51
75273;BMP280;63869;52.344;16.928;2023-02-01T04:25:45;99838.41;;;5.49
75273;BMP280;63869;52.344;16.928;2023-02-01T04:28:10;99861.47;;;5.59
75273;BMP280;63869;52.344;16.928;2023-02-01T04:30:36;99858.13;;;5.55
75273;BMP280;63869;52.344;16.928;2023-02-01T04:33:02;99867.22;;;5.54
75273;BMP280;63869;52.344;16.928;2023-02-01T04:35:30;99853.56;;;5.52
75273;BMP280;63869;52.344;16.928;2023-02-01T04:37:55;99837.34;;;5.36
75273;BMP280;63869;52.344;16.928;2023-02-01T04:40:20;99861.91;;;5.50
75273;BMP280;63869;52.344;16.928;2023-02-01T04:42:46;99841.44;;;5.51
75273;BMP280;63869;52.344;16.928;2023-02-01T04:45:11;99854.72;;;5.54
75273;BMP280;63869;52.344;16.928;2023-02-01T04:47:37;99854.31;;;5.49
75273;BMP280;63869;52.344;16.928;2023-02-01T04:50:03;99851.31;;;5.54
75273;BMP280;63869;52.344;16.928;2023-02-01T04:52:28;99852.78;;;5.58
75273;BMP280;63869;52.344;16.928;2023-02-01T04:54:53;99846.00;;;5.54
75273;BMP280;63869;52.344;16.928;2023-02-01T04:57:22;99871.69;;;5.64
75273;BMP280;63869;52.344;16.928;2023-02-01T04:59:47;99860.69;;;5.66
75273;BMP280;63869;52.344;16.928;2023-02-01T05:02:13;99850.84;;;5.66
75273;BMP280;63869;52.344;16.928;2023-02-01T05:04:38;99847.44;;;5.69
75273;BMP280;63869;52.344;16.928;2023-02-01T05:07:03;99845.91;;;5.72
75273;BMP280;63869;52.344;16.928;2023-02-01T05:09:28;99839.84;;;5.71
75273;BMP280;63869;52.344;16.928;2023-02-01T05:11:54;99848.09;;;5.80
75273;BMP280;63869;52.344;16.928;2023-02-01T05:14:38;99856.44;;;5.82
75273;BMP280;63869;52.344;16.928;2023-02-01T05:17:03;99846.59;;;5.79
75273;BMP280;63869;52.344;16.928;2023-02-01T05:19:28;99844.31;;;5.81
75273;BMP280;63869;52.344;16.928;2023-02-01T05:21:54;99835.97;;;5.86
75273;BMP280;63869;52.344;16.928;2023-02-01T05:24:19;99824.22;;;5.80
75273;BMP280;63869;52.344;16.928;2023-02-01T05:26:46;99834.44;;;5.89
75273;BMP280;63869;52.344;16.928;2023-02-01T05:29:12;99838.56;;;5.90
75273;BMP280;63869;52.344;16.928;2023-02-01T05:31:38;99835.91;;;5.93
75273;BMP280;63869;52.344;16.928;2023-02-01T05:34:04;99848.03;;;5.91
75273;BMP280;63869;52.344;16.928;2023-02-01T05:36:30;99824.22;;;5.87
75273;BMP280;63869;52.344;16.928;2023-02-01T05:38:55;99845.72;;;6.04
75273;BMP280;63869;52.344;16.928;2023-02-01T05:41:20;99806.78;;;5.86
75273;BMP280;63869;52.344;16.928;2023-02-01T05:43:46;99852.09;;;6.06
75273;BMP280;63869;52.344;16.928;2023-02-01T05:46:11;99834.28;;;6.07
75273;BMP280;63869;52.344;16.928;2023-02-01T05:48:39;99808.25;;;5.91
75273;BMP280;63869;52.344;16.928;2023-02-01T05:51:04;99825.56;;;6.06
75273;BMP280;63869;52.344;16.928;2023-02-01T05:53:30;99835.81;;;6.04
75273;BMP280;63869;52.344;16.928;2023-02-01T05:55:55;99838.44;;;6.08
75273;BMP280;63869;52.344;16.928;2023-02-01T05:58:20;99823.38;;;5.97
75273;BMP280;63869;52.344;16.928;2023-02-01T06:00:46;99822.25;;;5.95
75273;BMP280;63869;52.344;16.928;2023-02-01T06:03:11;99818.88;;;5.91
75273;BMP280;63869;52.344;16.928;2023-02-01T06:05:36;99841.88;;;6.05
75273;BMP280;63869;52.344;16.928;2023-02-01T06:08:02;99798.88;;;5.76
75273;BMP280;63869;52.344;16.928;2023-02-01T06:10:27;99840.78;;;5.99
75273;BMP280;63869;52.344;16.928;2023-02-01T06:12:52;99829.84;;;5.93
75273;BMP280;63869;52.344;16.928;2023-02-01T06:15:18;99847.94;;;6.05
75273;BMP280;63869;52.344;16.928;2023-02-01T06:17:44;99862.31;;;6.08
75273;BMP280;63869;52.344;16.928;2023-02-01T06:20:16;99852.94;;;6.00
75273;BMP280;63869;52.344;16.928;2023-02-01T06:22:41;99849.47;;;5.40
75273;BMP280;63869;52.344;16.928;2023-02-01T06:25:09;99854.91;;;4.87
75273;BMP280;63869;52.344;16.928;2023-02-01T06:27:35;99843.22;;;4.52
75273;BMP280;63869;52.344;16.928;2023-02-01T06:30:03;99851.19;;;4.27
75273;BMP280;63869;52.344;16.928;2023-02-01T06:32:28;99848.09;;;4.00
75273;BMP280;63869;52.344;16.928;2023-02-01T06:34:53;99849.22;;;3.92
75273;BMP280;63869;52.344;16.928;2023-02-01T06:37:20;99834.84;;;3.72
75273;BMP280;63869;52.344;16.928;2023-02-01T06:39:46;99849.16;;;3.78
75273;BMP280;63869;52.344;16.928;2023-02-01T06:42:12;99859.34;;;3.76
75273;BMP280;63869;52.344;16.928;2023-02-01T06:44:37;99844.56;;;3.54
75273;BMP280;63869;52.344;16.928;2023-02-01T06:47:05;99831.75;;;3.56
75273;BMP280;63869;52.344;16.928;2023-02-01T06:49:30;99837.06;;;3.63
75273;BMP280;63869;52.344;16.928;2023-02-01T06:51:56;99837.41;;;3.54
75273;BMP280;63869;52.344;16.928;2023-02-01T06:54:21;99843.84;;;3.60
75273;BMP280;63869;52.344;16.928;2023-02-01T06:56:46;99822.66;;;3.43
75273;BMP280;63869;52.344;16.928;2023-02-01T06:59:12;99826.81;;;3.51
75273;BMP280;63869;52.344;16.928;2023-02-01T07:01:37;99841.56;;;3.59
75273;BMP280;63869;52.344;16.928;2023-02-01T07:04:03;99851.44;;;3.65
75273;BMP280;63869;52.344;16.928;2023-02-01T07:06:29;99848.81;;;3.69
75273;BMP280;63869;52.344;16.928;2023-02-01T07:08:54;99846.53;;;3.64
75273;BMP280;63869;52.344;16.928;2023-02-01T07:11:23;99846.91;;;3.66
75273;BMP280;63869;52.344;16.928;2023-02-01T07:13:48;99837.78;;;3.60
75273;BMP280;63869;52.344;16.928;2023-02-01T07:16:16;99855.91;;;3.61
75273;BMP280;63869;52.344;16.928;2023-02-01T07:18:42;99866.16;;;3.63
75273;BMP280;63869;52.344;16.928;2023-02-01T07:21:07;99852.88;;;3.56
75273;BMP280;63869;52.344;16.928;2023-02-01T07:23:33;99842.31;;;3.49
75273;BMP280;63869;52.344;16.928;2023-02-01T07:26:01;99855.53;;;3.56
75273;BMP280;63869;52.344;16.928;2023-02-01T07:28:30;99861.94;;;3.51
75273;BMP280;63869;52.344;16.928;2023-02-01T07:31:02;99852.88;;;3.52
75273;BMP280;63869;52.344;16.928;2023-02-01T07:33:27;99872.50;;;3.55
75273;BMP280;63869;52.344;16.928;2023-02-01T07:35:53;99867.22;;;3.51
75273;BMP280;63869;52.344;16.928;2023-02-01T07:38:18;99851.72;;;3.50
75273;BMP280;63869;52.344;16.928;2023-02-01T07:40:46;99852.88;;;3.56
75273;BMP280;63869;52.344;16.928;2023-02-01T07:43:11;99865.00;;;3.64
75273;BMP280;63869;52.344;16.928;2023-02-01T07:45:37;99833.22;;;3.46
75273;BMP280;63869;52.344;16.928;2023-02-01T07:48:05;99860.50;;;3.68
75273;BMP280;63869;52.344;16.928;2023-02-01T07:50:30;99876.72;;;3.63
75273;BMP280;63869;52.344;16.928;2023-02-01T07:52:58;99862.38;;;3.64
75273;BMP280;63869;52.344;16.928;2023-02-01T07:55:23;99856.69;;;3.62
75273;BMP280;63869;52.344;16.928;2023-02-01T07:57:49;99857.44;;;3.59
75273;BMP280;63869;52.344;16.928;2023-02-01T08:00:15;99859.69;;;3.60
75273;BMP280;63869;52.344;16.928;2023-02-01T08:02:58;99859.72;;;3.64
75273;BMP280;63869;52.344;16.928;2023-02-01T08:05:25;99845.78;;;3.67
75273;BMP280;63869;52.344;16.928;2023-02-01T08:07:50;99843.13;;;3.70
75273;BMP280;63869;52.344;16.928;2023-02-01T08:10:17;99842.41;;;3.74
75273;BMP280;63869;52.344;16.928;2023-02-01T08:12:43;99841.66;;;3.80
75273;BMP280;63869;52.344;16.928;2023-02-01T08:15:12;99831.09;;;3.84
75273;BMP280;63869;52.344;16.928;2023-02-01T08:17:37;99829.59;;;3.90
75273;BMP280;63869;52.344;16.928;2023-02-01T08:20:03;99831.09;;;3.98
75273;BMP280;63869;52.344;16.928;2023-02-01T08:22:31;99824.31;;;4.08
75273;BMP280;63869;52.344;16.928;2023-02-01T08:24:56;99818.28;;;4.18
75273;BMP280;63869;52.344;16.928;2023-02-01T08:27:26;99848.50;;;4.24
75273;BMP280;63869;52.344;16.928;2023-02-01T08:29:52;99814.53;;;4.29
75273;BMP280;63869;52.344;16.928;2023-02-01T08:32:18;99839.47;;;4.32
75273;BMP280;63869;52.344;16.928;2023-02-01T08:34:44;99816.41;;;4.32
75273;BMP280;63869;52.344;16.928;2023-02-01T08:37:09;99817.53;;;4.35
75273;BMP280;63869;52.344;16.928;2023-02-01T08:39:34;99821.66;;;4.40
75273;BMP280;63869;52.344;16.928;2023-02-01T08:42:01;99824.72;;;4.45
75273;BMP280;63869;52.344;16.928;2023-02-01T08:44:45;99819.81;;;4.47
75273;BMP280;63869;52.344;16.928;2023-02-01T08:47:10;99808.47;;;4.50
75273;BMP280;63869;52.344;16.928;2023-02-01T08:49:36;99802.78;;;4.55
75273;BMP280;63869;52.344;16.928;2023-02-01T08:52:01;99802.00;;;4.58
75273;BMP280;63869;52.344;16.928;2023-02-01T08:54:26;99806.16;;;4.63
75273;BMP280;63869;52.344;16.928;2023-02-01T08:56:51;99784.22;;;4.70
75273;BMP280;63869;52.344;16.928;2023-02-01T08:59:18;99791.03;;;4.74
75273;BMP280;63869;52.344;16.928;2023-02-01T09:01:43;99806.91;;;4.78
75273;BMP280;63869;52.344;16.928;2023-02-01T09:04:09;99796.66;;;4.83
75273;BMP280;63869;52.344;16.928;2023-02-01T09:06:34;99805.38;;;4.91
75273;BMP280;63869;52.344;16.928;2023-02-01T09:08:59;99797.78;;;4.93
75273;BMP280;63869;52.344;16.928;2023-02-01T09:11:24;99801.59;;;4.92
75273;BMP280;63869;52.344;16.928;2023-02-01T09:13:50;99804.63;;;4.90
75273;BMP280;63869;52.344;16.928;2023-02-01T09:16:16;99820.88;;;4.89
75273;BMP280;63869;52.344;16.928;2023-02-01T09:18:41;99829.97;;;4.81
75273;BMP280;63869;52.344;16.928;2023-02-01T09:21:06;99832.63;;;4.66
75273;BMP280;63869;52.344;16.928;2023-02-01T09:23:33;99816.00;;;4.59
75273;BMP280;63869;52.344;16.928;2023-02-01T09:25:59;99809.97;;;4.51
75273;BMP280;63869;52.344;16.928;2023-02-01T09:28:25;99825.84;;;4.51
75273;BMP280;63869;52.344;16.928;2023-02-01T09:30:54;99818.28;;;4.53
75273;BMP280;63869;52.344;16.928;2023-02-01T09:33:19;99809.97;;;4.58
75273;BMP280;63869;52.344;16.928;2023-02-01T09:35:46;99805.06;;;4.53
75273;BMP280;63869;52.344;16.928;2023-02-01T09:38:11;99843.25;;;4.34
75273;BMP280;63869;52.344;16.928;2023-02-01T09:40:39;99813.34;;;4.06
75273;BMP280;63869;52.344;16.928;2023-02-01T09:43:20;99810.31;;;3.86
75273;BMP280;63869;52.344;16.928;2023-02-01T09:46:16;99810.69;;;3.81
75273;BMP280;63869;52.344;16.928;2023-02-01T09:48:45;99812.91;;;3.75
75273;BMP280;63869;52.344;16.928;2023-02-01T09:51:16;99814.81;;;3.67
75273;BMP280;63869;52.344;16.928;2023-02-01T09:53:47;99814.38;;;3.58
75273;BMP280;63869;52.344;16.928;2023-02-01T09:56:27;99797.00;;;3.50
75273;BMP280;63869;52.344;16.928;2023-02-01T09:59:01;99754.66;;;3.25
75273;BMP280;63869;52.344;16.928;2023-02-01T10:01:29;99801.53;;;3.46
75273;BMP280;63869;52.344;16.928;2023-02-01T10:04:13;99810.22;;;3.57
75273;BMP280;63869;52.344;16.928;2023-02-01T10:07:09;99815.53;;;3.61
75273;BMP280;63869;52.344;16.928;2023-02-01T10:10:08;99796.31;;;3.64
75273;BMP280;63869;52.344;16.928;2023-02-01T10:12:45;99791.78;;;3.72
75273;BMP280;63869;52.344;16.928;2023-02-01T10:15:34;99794.81;;;3.81
75273;BMP280;63869;52.344;16.928;2023-02-01T10:20:30;99784.25;;;3.84
75273;BMP280;63869;52.344;16.928;2023-02-01T10:25:44;99774.47;;;3.95
75273;BMP280;63869;52.344;16.928;2023-02-01T10:28:16;99784.28;;;3.98
75273;BMP280;63869;52.344;16.928;2023-02-01T10:30:47;99754.44;;;3.80
75273;BMP280;63869;52.344;16.928;2023-02-01T10:33:26;99772.56;;;4.03
75273;BMP280;63869;52.344;16.928;2023-02-01T10:36:10;99771.81;;;4.10
75273;BMP280;63869;52.344;16.928;2023-02-01T10:38:37;99754.81;;;3.89
75273;BMP280;63869;52.344;16.928;2023-02-01T10:41:18;99763.13;;;3.98
75273;BMP280;63869;52.344;16.928;2023-02-01T10:43:46;99777.84;;;3.99
75273;BMP280;63869;52.344;16.928;2023-02-01T10:46:13;99743.47;;;3.82
75273;BMP280;63869;52.344;16.928;2023-02-01T10:48:38;99761.59;;;3.94
75273;BMP280;63869;52.344;16.928;2023-02-01T10:51:10;99775.19;;;3.85
75273;BMP280;63869;52.344;16.928;2023-02-01T10:53:50;99763.50;;;3.90
75273;BMP280;63869;52.344;16.928;2023-02-01T10:56:27;99745.75;;;3.90
75273;BMP280;63869;52.344;16.928;2023-02-01T10:59:05;99748.75;;;3.92
75273;BMP280;63869;52.344;16.928;2023-02-01T11:01:39;99751.41;;;4.03
75273;BMP280;63869;52.344;16.928;2023-02-01T11:04:13;99738.19;;;3.99
75273;BMP280;63869;52.344;16.928;2023-02-01T11:06:42;99757.06;;;3.98
75273;BMP280;63869;52.344;16.928;2023-02-01T11:09:16;99765.00;;;3.98
75273;BMP280;63869;52.344;16.928;2023-02-01T11:17:12;99750.28;;;3.83
75273;BMP280;63869;52.344;16.928;2023-02-01T11:19:45;99751.78;;;3.87
75273;BMP280;63869;52.344;16.928;2023-02-01T11:22:11;99753.28;;;3.81
75273;BMP280;63869;52.344;16.928;2023-02-01T11:24:44;99735.53;;;3.85
75273;BMP280;63869;52.344;16.928;2023-02-01T11:27:17;99758.59;;;4.02
75273;BMP280;63869;52.344;16.928;2023-02-01T11:29:47;99760.47;;;4.02
75273;BMP280;63869;52.344;16.928;2023-02-01T11:32:17;99719.31;;;3.87
75273;BMP280;63869;52.344;16.928;2023-02-01T11:34:51;99752.16;;;3.96
75273;BMP280;63869;52.344;16.928;2023-02-01T11:37:33;99736.69;;;3.98
75273;BMP280;63869;52.344;16.928;2023-02-01T11:40:22;99746.50;;;4.01
75273;BMP280;63869;52.344;16.928;2023-02-01T11:42:59;99732.50;;;4.08
75273;BMP280;63869;52.344;16.928;2023-02-01T11:45:29;99743.09;;;4.08
75273;BMP280;63869;52.344;16.928;2023-02-01T11:47:57;99730.63;;;3.98
75273;BMP280;63869;52.344;16.928;2023-02-01T12:06:55;99732.13;;;4.10
75273;BMP280;63869;52.344;16.928;2023-02-01T12:09:34;99739.31;;;4.06
75273;BMP280;63869;52.344;16.928;2023-02-01T12:15:10;99742.72;;;3.92
75273;BMP280;63869;52.344;16.928;2023-02-01T12:23:12;99744.22;;;3.89
75273;BMP280;63869;52.344;16.928;2023-02-01T12:34:40;99743.44;;;3.78
75273;BMP280;63869;52.344;16.928;2023-02-01T12:43:25;99739.69;;;3.79
75273;BMP280;63869;52.344;16.928;2023-02-01T12:45:56;99747.25;;;3.84
75273;BMP280;63869;52.344;16.928;2023-02-01T12:51:36;99740.47;;;3.87
75273;BMP280;63869;52.344;16.928;2023-02-01T12:56:47;99744.22;;;3.82
75273;BMP280;63869;52.344;16.928;2023-02-01T13:02:15;99756.28;;;3.76
75273;BMP280;63869;52.344;16.928;2023-02-01T13:04:55;99746.50;;;3.73
75273;BMP280;63869;52.344;16.928;2023-02-01T13:07:41;99755.56;;;3.79
75273;BMP280;63869;52.344;16.928;2023-02-01T13:10:22;99756.31;;;3.83
75273;BMP280;63869;52.344;16.928;2023-02-01T13:15:28;99754.44;;;3.91
75273;BMP280;63869;52.344;16.928;2023-02-01T13:18:02;99744.63;;;3.95
75273;BMP280;63869;52.344;16.928;2023-02-01T13:20:32;99737.06;;;4.04
75273;BMP280;63869;52.344;16.928;2023-02-01T13:23:11;99744.97;;;4.18
75273;BMP280;63869;52.344;16.928;2023-02-01T13:25:51;99748.41;;;4.26
75273;BMP280;63869;52.344;16.928;2023-02-01T13:28:22;99772.97;;;4.26
75273;BMP280;63869;52.344;16.928;2023-02-01T13:42:03;99722.31;;;3.89
75273;BMP280;63869;52.344;16.928;2023-02-01T13:44:45;99749.13;;;4.01
75273;BMP280;63869;52.344;16.928;2023-02-01T13:47:58;99748.75;;;4.07
75273;BMP280;63869;52.344;16.928;2023-02-01T13:52:57;99736.28;;;4.25
75273;BMP280;63869;52.344;16.928;2023-02-01T13:55:26;99733.56;;;4.60
75273;BMP280;63869;52.344;16.928;2023-02-01T13:58:02;99742.59;;;4.77
75273;BMP280;63869;52.344;16.928;2023-02-01T14:00:39;99764.91;;;4.76
75273;BMP280;63869;52.344;16.928;2023-02-01T14:13:38;99747.59;;;4.54
75273;BMP280;63869;52.344;16.928;2023-02-01T14:16:13;99708.31;;;4.34
75273;BMP280;63869;52.344;16.928;2023-02-01T14:28:57;99732.75;;;4.81
75273;BMP280;63869;52.344;16.928;2023-02-01T14:31:37;99732.69;;;4.95
75273;BMP280;63869;52.344;16.928;2023-02-01T14:34:14;99716.03;;;4.98
75273;BMP280;63869;52.344;16.928;2023-02-01T14:37:07;99736.75;;;5.18
75273;BMP280;63869;52.344;16.928;2023-02-01T14:44:50;99714.53;;;5.05
75273;BMP280;63869;52.344;16.928;2023-02-01T14:52:19;99721.06;;;4.72
75273;BMP280;63869;52.344;16.928;2023-02-01T14:55:06;99727.53;;;4.56
75273;BMP280;63869;52.344;16.928;2023-02-01T14:57:37;99733.59;;;4.53
75273;BMP280;63869;52.344;16.928;2023-02-01T15:00:19;99725.28;;;4.48
75273;BMP280;63869;52.344;16.928;2023-02-01T15:02:46;99713.56;;;4.38
75273;BMP280;63869;52.344;16.928;2023-02-01T15:05:29;99722.69;;;4.37
75273;BMP280;63869;52.344;16.928;2023-02-01T15:07:58;99725.72;;;4.32
75273;BMP280;63869;52.344;16.928;2023-02-01T15:10:25;99714.38;;;4.28
75273;BMP280;63869;52.344;16.928;2023-02-01T15:12:51;99695.91;;;4.10
75273;BMP280;63869;52.344;16.928;2023-02-01T15:15:22;99713.22;;;4.22
75273;BMP280;63869;52.344;16.928;2023-02-01T15:17:59;99728.34;;;4.21
75273;BMP280;63869;52.344;16.928;2023-02-01T15:20:32;99721.91;;;4.22
75273;BMP280;63869;52.344;16.928;2023-02-01T15:25:30;99726.84;;;4.34
75273;BMP280;63869;52.344;16.928;2023-02-01T15:27:57;99724.94;;;4.35
75273;BMP280;63869;52.344;16.928;2023-02-01T15:30:29;99726.81;;;4.45
75273;BMP280;63869;52.344;16.928;2023-02-01T15:33:15;99718.47;;;4.50
75273;BMP280;63869;52.344;16.928;2023-02-01T15:41:17;99735.88;;;4.48
75273;BMP280;63869;52.344;16.928;2023-02-01T15:46:15;99729.06;;;4.40
75273;BMP280;63869;52.344;16.928;2023-02-01T15:48:47;99749.13;;;4.37
75273;BMP280;63869;52.344;16.928;2023-02-01T15:51:19;99736.66;;;4.38
75273;BMP280;63869;52.344;16.928;2023-02-01T15:56:34;99722.31;;;4.28
75273;BMP280;63869;52.344;16.928;2023-02-01T15:59:02;99722.28;;;4.24
75273;BMP280;63869;52.344;16.928;2023-02-01T16:01:29;99686.06;;;3.93
75273;BMP280;63869;52.344;16.928;2023-02-01T16:06:54;99745.00;;;4.00
75273;BMP280;63869;52.344;16.928;2023-02-01T16:09:25;99750.66;;;3.92
75273;BMP280;63869;52.344;16.928;2023-02-01T16:12:01;99738.91;;;3.75
75273;BMP280;63869;52.344;16.928;2023-02-01T16:14:27;99756.66;;;3.78
75273;BMP280;63869;52.344;16.928;2023-02-01T16:16:55;99749.50;;;3.72
75273;BMP280;63869;52.344;16.928;2023-02-01T16:19:21;99732.47;;;3.55
75273;BMP280;63869;52.344;16.928;2023-02-01T16:21:48;99741.16;;;3.59
75273;BMP280;63869;52.344;16.928;2023-02-01T16:24:13;99750.59;;;3.53
75273;BMP280;63869;52.344;16.928;2023-02-01T16:26:38;99715.09;;;3.43
75273;BMP280;63869;52.344;16.928;2023-02-01T16:29:04;99708.66;;;3.33
75273;BMP280;63869;52.344;16.928;2023-02-01T16:31:34;99731.72;;;3.58
75273;BMP280;63869;52.344;16.928;2023-02-01T16:33:59;99733.66;;;3.68
75273;BMP280;63869;52.344;16.928;2023-02-01T16:36:27;99736.66;;;3.77
75273;BMP280;63869;52.344;16.928;2023-02-01T16:38:53;99735.94;;;3.91
75273;BMP280;63869;52.344;16.928;2023-02-01T16:41:21;99738.94;;;4.03
75273;BMP280;63869;52.344;16.928;2023-02-01T16:43:52;99723.09;;;4.14
75273;BMP280;63869;52.344;16.928;2023-02-01T16:46:21;99719.28;;;4.26
75273;BMP280;63869;52.344;16.928;2023-02-01T16:49:21;99729.81;;;4.40
75273;BMP280;63869;52.344;16.928;2023-02-01T16:51:49;99719.25;;;4.47